Time;durP1;ratioP1;P1;durP2;ratioP2;P2;SDS_P1;SDS_P2;PMS_P1;PMS_P2;Temp;Humidity;BMP_temperature;BMP_pressure;BME280_temperature;BME280_humidity;BME280_pressure;Samples;Min_cycle;Max_cycle;Signal;HPM_P1;HPM_P2
2022/06/21 00:01:51;;;;;;;;;14.33;14.00;;;;;22.71;50.85;100075.08;110243;1264;18833;-50
2022/06/21 00:04:18;;;;;;;;;14.00;14.00;;;;;22.71;50.90;100068.02;110262;1263;19009;-49
2022/06/21 00:06:46;;;;;;;;;12.00;11.00;;;;;22.74;50.82;100067.39;110289;1264;19842;-49
2022/06/21 00:09:13;;;;;;;;;11.00;11.00;;;;;22.74;50.43;100069.88;110232;1264;18731;-46
2022/06/21 00:11:40;;;;;;;;;11.00;11.00;;;;;22.67;50.57;100073.42;110282;1265;18774;-47
2022/06/21 00:14:08;;;;;;;;;11.67;10.33;;;;;22.57;50.74;100072.81;110301;1264;19654;-49
2022/06/21 00:16:35;;;;;;;;;12.00;11.00;;;;;22.62;50.63;100072.02;110273;1264;22267;-48
2022/06/21 00:19:02;;;;;;;;;11.00;9.00;;;;;22.60;50.64;100069.38;110301;1264;18900;-51
2022/06/21 00:21:29;;;;;;;;;11.67;9.00;;;;;22.58;50.56;100064.33;110308;1264;20385;-49
2022/06/21 00:23:57;;;;;;;;;10.67;10.00;;;;;22.63;50.47;100055.52;110243;1264;18908;-48
2022/06/21 00:26:24;;;;;;;;;10.00;10.00;;;;;22.63;50.48;100058.12;110284;1264;18788;-49
2022/06/21 00:28:51;;;;;;;;;10.00;9.67;;;;;22.61;50.39;100059.45;110283;1265;22161;-48
2022/06/21 00:31:19;;;;;;;;;13.00;11.00;;;;;22.59;50.46;100051.72;110242;1264;22368;-50
2022/06/21 00:33:46;;;;;;;;;11.00;10.00;;;;;22.59;50.47;100053.28;110239;1263;21090;-52
2022/06/21 00:36:13;;;;;;;;;13.00;9.00;;;;;22.62;50.37;100054.55;110173;1265;19486;-51
2022/06/21 00:38:41;;;;;;;;;9.50;9.00;;;;;22.59;50.29;100049.36;110252;1264;18833;-51
2022/06/21 00:41:08;;;;;;;;;9.33;7.00;;;;;22.56;50.39;100048.60;110140;1264;18766;-49
2022/06/21 00:43:35;;;;;;;;;9.00;8.33;;;;;22.54;50.38;100055.25;110260;1264;20170;-48
2022/06/21 00:46:02;;;;;;;;;9.33;9.33;;;;;22.57;50.23;100052.51;110338;1264;18625;-51
2022/06/21 00:48:30;;;;;;;;;10.00;9.00;;;;;22.56;50.08;100053.00;110298;1264;18728;-50
2022/06/21 00:50:57;;;;;;;;;7.00;7.00;;;;;22.50;50.25;100057.84;110300;1264;19628;-49
2022/06/21 00:53:24;;;;;;;;;7.00;7.00;;;;;22.44;50.30;100055.04;110268;1264;18910;-48
2022/06/21 00:55:52;;;;;;;;;9.00;7.00;;;;;22.42;50.36;100048.94;110271;1264;18834;-50
2022/06/21 00:58:19;;;;;;;;;9.00;7.67;;;;;22.43;50.24;100053.52;110350;1264;19482;-50
2022/06/21 01:00:46;;;;;;;;;6.00;6.00;;;;;22.37;50.35;100050.92;110386;1264;20024;-49
2022/06/21 01:03:14;;;;;;;;;9.00;9.00;;;;;22.33;50.31;100042.30;110212;1264;19249;-49
2022/06/21 01:05:41;;;;;;;;;7.00;7.00;;;;;22.37;50.24;100045.19;110255;1264;20358;-49
2022/06/21 01:08:08;;;;;;;;;8.33;7.00;;;;;22.38;50.04;100051.56;110095;1264;23871;-48
2022/06/21 01:10:35;;;;;;;;;8.00;7.00;;;;;22.38;50.04;100054.34;110150;1264;18837;-49
2022/06/21 01:13:03;;;;;;;;;6.33;6.33;;;;;22.29;49.95;100055.35;110286;1264;22088;-53
2022/06/21 01:15:30;;;;;;;;;6.00;6.00;;;;;22.31;49.97;100049.10;110290;1264;22258;-49
2022/06/21 01:17:57;;;;;;;;;7.00;7.00;;;;;22.31;49.88;100054.98;110274;1264;18960;-49
2022/06/21 01:20:24;;;;;;;;;6.00;6.00;;;;;22.27;49.91;100058.58;110218;1264;19942;-48
2022/06/21 01:22:52;;;;;;;;;6.67;6.67;;;;;22.21;49.76;100056.79;110275;1264;22207;-50
2022/06/21 01:25:19;;;;;;;;;7.00;6.00;;;;;22.25;49.78;100056.09;110290;1264;19059;-48
2022/06/21 01:27:47;;;;;;;;;7.00;7.00;;;;;22.27;49.73;100057.60;110313;1264;19753;-48
2022/06/21 01:30:14;;;;;;;;;7.00;7.00;;;;;22.27;49.52;100057.86;110261;1264;18653;-48
2022/06/21 01:32:41;;;;;;;;;6.00;6.00;;;;;22.27;49.48;100059.29;110274;1265;20314;-49
2022/06/21 01:35:08;;;;;;;;;9.00;7.00;;;;;22.29;49.41;100056.23;110218;1265;19582;-48
2022/06/21 01:37:36;;;;;;;;;6.00;6.00;;;;;22.29;49.27;100055.31;110251;1264;19773;-48
2022/06/21 01:40:03;;;;;;;;;6.00;6.00;;;;;22.29;49.23;100057.35;110305;1264;20231;-48
2022/06/21 01:42:30;;;;;;;;;5.33;5.33;;;;;22.31;49.28;100050.75;110266;1265;19623;-48
2022/06/21 01:44:57;;;;;;;;;6.00;5.00;;;;;22.33;49.08;100054.44;110261;1264;18641;-48
2022/06/21 01:47:25;;;;;;;;;9.00;7.00;;;;;22.32;49.11;100055.11;110256;1264;19540;-48
2022/06/21 01:49:52;;;;;;;;;6.00;6.00;;;;;22.33;49.05;100049.15;110262;1264;20871;-48
2022/06/21 01:52:19;;;;;;;;;10.00;7.00;;;;;22.36;49.03;100049.13;110298;1264;19177;-49
2022/06/21 01:54:46;;;;;;;;;6.00;6.00;;;;;22.26;49.23;100049.05;110280;1264;18873;-48
2022/06/21 01:57:14;;;;;;;;;6.00;6.00;;;;;22.22;49.22;100052.71;110278;1264;19505;-48
2022/06/21 01:59:41;;;;;;;;;8.00;7.00;;;;;22.25;49.10;100044.37;110308;1264;19055;-48
2022/06/21 02:02:08;;;;;;;;;7.00;7.00;;;;;22.32;48.95;100043.86;110308;1264;22662;-48
2022/06/21 02:04:36;;;;;;;;;7.00;7.00;;;;;22.29;49.02;100044.09;110294;1265;22221;-50
2022/06/21 02:07:03;;;;;;;;;6.67;6.00;;;;;22.29;49.14;100041.58;110240;1264;22007;-50
2022/06/21 02:09:30;;;;;;;;;7.00;6.00;;;;;22.25;49.12;100041.92;110267;1263;18802;-50
2022/06/21 02:11:58;;;;;;;;;6.00;6.00;;;;;22.23;49.15;100045.00;110265;1264;19534;-48
2022/06/21 02:14:31;;;;;;;;;7.00;7.00;;;;;22.25;49.06;100043.80;110238;1264;18402;-50
2022/06/21 02:16:59;;;;;;;;;7.67;7.00;;;;;22.23;48.81;100046.14;110262;1264;18796;-49
2022/06/21 02:19:26;;;;;;;;;7.00;7.00;;;;;22.19;48.75;100041.92;110287;1264;22823;-51
2022/06/21 02:21:53;;;;;;;;;7.00;7.00;;;;;22.16;48.85;100040.94;110313;1264;18529;-50
2022/06/21 02:24:23;;;;;;;;;5.33;5.33;;;;;22.13;48.80;100037.02;110275;1264;26062;-48
2022/06/21 02:26:50;;;;;;;;;7.00;6.33;;;;;22.14;48.77;100036.27;110292;1264;19533;-48
2022/06/21 02:29:17;;;;;;;;;7.67;7.67;;;;;22.18;48.51;100037.59;110283;1264;18642;-47
2022/06/21 02:31:45;;;;;;;;;5.00;5.00;;;;;22.18;48.54;100038.13;110293;1264;19099;-47
2022/06/21 02:34:12;;;;;;;;;6.00;6.00;;;;;22.17;48.47;100039.13;110307;1264;19745;-48
2022/06/21 02:36:39;;;;;;;;;9.00;6.67;;;;;22.25;48.37;100036.47;110327;1264;20023;-51
2022/06/21 02:39:07;;;;;;;;;7.67;6.67;;;;;22.22;48.25;100041.55;110294;1264;18832;-48
2022/06/21 02:41:34;;;;;;;;;7.00;7.00;;;;;22.19;48.24;100041.75;110299;1263;22252;-53
2022/06/21 02:44:01;;;;;;;;;6.00;6.00;;;;;22.18;48.24;100043.34;110254;1264;18530;-51
2022/06/21 02:46:29;;;;;;;;;8.33;8.33;;;;;22.23;48.10;100045.76;110257;1264;18733;-49
2022/06/21 02:48:56;;;;;;;;;9.33;7.67;;;;;22.23;48.14;100045.41;110277;1264;19537;-50
2022/06/21 02:51:24;;;;;;;;;9.00;9.00;;;;;22.13;48.14;100041.96;110285;1264;19916;-49
2022/06/21 02:53:51;;;;;;;;;9.00;7.00;;;;;22.18;48.14;100036.87;110262;1264;21481;-50
2022/06/21 02:56:18;;;;;;;;;7.00;7.00;;;;;22.14;48.02;100038.61;110263;1264;21842;-50
2022/06/21 02:58:46;;;;;;;;;7.00;7.00;;;;;22.16;47.96;100039.80;110310;1264;18599;-48
2022/06/21 03:01:13;;;;;;;;;8.33;8.00;;;;;22.14;48.00;100039.41;110292;1264;21512;-50
2022/06/21 03:03:40;;;;;;;;;7.00;7.00;;;;;22.13;48.08;100038.77;110320;1264;19542;-48
2022/06/21 03:06:07;;;;;;;;;10.00;9.00;;;;;22.16;47.93;100034.96;110302;1264;18636;-50
2022/06/21 03:08:35;;;;;;;;;8.50;8.50;;;;;22.13;47.89;100033.11;110286;1264;18742;-50
2022/06/21 03:11:02;;;;;;;;;9.33;7.67;;;;;22.15;47.95;100029.42;110269;1265;19626;-48
2022/06/21 03:13:29;;;;;;;;;6.67;6.33;;;;;22.17;47.94;100026.04;110277;1264;18507;-48
2022/06/21 03:15:57;;;;;;;;;13.50;11.00;;;;;22.15;48.11;100030.64;110261;1263;18837;-50
2022/06/21 03:18:24;;;;;;;;;9.00;9.00;;;;;22.19;48.07;100028.72;110308;1264;23781;-49
2022/06/21 03:20:51;;;;;;;;;8.33;7.67;;;;;22.23;47.88;100026.17;110239;1264;18825;-51
2022/06/21 03:23:19;;;;;;;;;9.00;7.00;;;;;22.20;47.98;100030.05;110264;1264;21198;-49
2022/06/21 03:25:46;;;;;;;;;7.00;7.00;;;;;22.22;47.95;100027.89;110298;1264;19525;-49
2022/06/21 03:28:13;;;;;;;;;7.00;7.00;;;;;22.25;47.86;100022.67;110259;1264;19992;-50
2022/06/21 03:30:41;;;;;;;;;9.00;9.00;;;;;22.26;47.91;100025.61;110342;1264;18841;-50
2022/06/21 03:33:08;;;;;;;;;7.00;7.00;;;;;22.24;48.00;100026.02;110289;1264;22329;-49
2022/06/21 03:35:35;;;;;;;;;9.00;8.33;;;;;22.16;48.14;100028.75;110303;1264;20002;-49
2022/06/21 03:38:02;;;;;;;;;10.67;9.00;;;;;22.12;48.12;100026.64;110305;1264;18839;-48
2022/06/21 03:43:15;;;;;;;;;5.67;5.67;;;;;22.20;48.13;100020.21;110189;1264;19056;-51
2022/06/21 03:45:43;;;;;;;;;9.33;9.00;;;;;22.15;48.38;100021.74;110273;1264;21340;-49
2022/06/21 03:48:10;;;;;;;;;9.00;8.33;;;;;22.20;48.09;100017.09;110300;1264;19613;-49
2022/06/21 03:50:37;;;;;;;;;10.00;9.00;;;;;22.14;48.23;100015.52;110267;1264;19844;-48
2022/06/21 03:53:05;;;;;;;;;13.00;9.00;;;;;22.14;48.35;100014.39;110236;1264;18876;-47
2022/06/21 03:55:32;;;;;;;;;6.00;6.00;;;;;22.17;48.17;100014.57;110283;1264;19546;-49
2022/06/21 03:57:59;;;;;;;;;10.00;8.50;;;;;22.17;48.41;100011.80;110297;1264;22212;-48
2022/06/21 04:00:26;;;;;;;;;9.00;9.00;;;;;22.15;48.38;100009.60;110218;1264;21940;-48
2022/06/21 04:02:54;;;;;;;;;9.50;9.00;;;;;22.21;48.26;100012.65;110278;1265;19652;-48
2022/06/21 04:05:21;;;;;;;;;13.00;10.00;;;;;22.14;48.48;100016.19;110253;1264;18353;-48
2022/06/21 04:07:48;;;;;;;;;8.67;7.00;;;;;22.04;48.61;100016.38;110268;1264;18768;-48
2022/06/21 04:10:16;;;;;;;;;7.00;6.33;;;;;22.09;48.52;100022.48;110262;1264;19996;-48
2022/06/21 04:12:44;;;;;;;;;8.33;7.00;;;;;22.11;48.57;100022.17;110303;1264;18859;-48
2022/06/21 04:15:11;;;;;;;;;7.00;7.00;;;;;22.08;48.52;100022.10;110254;1264;19093;-48
2022/06/21 04:17:38;;;;;;;;;7.00;7.00;;;;;22.06;48.68;100022.92;110270;1264;19803;-48
2022/06/21 04:20:06;;;;;;;;;6.00;6.00;;;;;22.12;48.40;100025.20;110282;1264;18448;-54
2022/06/21 04:22:33;;;;;;;;;6.00;6.00;;;;;22.17;48.31;100022.42;110250;1264;18785;-48
2022/06/21 04:25:02;;;;;;;;;9.67;7.00;;;;;22.17;48.44;100028.92;110294;1264;19478;-50
2022/06/21 04:27:29;;;;;;;;;8.33;8.33;;;;;22.13;48.34;100027.06;110263;1264;18924;-50
2022/06/21 04:29:57;;;;;;;;;6.00;6.00;;;;;22.13;48.44;100029.83;110289;1264;19332;-49
2022/06/21 04:32:24;;;;;;;;;9.50;9.00;;;;;22.01;48.62;100024.66;110251;1264;19551;-49
2022/06/21 04:34:51;;;;;;;;;9.00;9.00;;;;;22.00;48.59;100024.25;110270;1264;18498;-50
2022/06/21 04:37:18;;;;;;;;;7.00;7.00;;;;;22.06;48.61;100029.19;110280;1264;18764;-49
2022/06/21 04:39:46;;;;;;;;;8.00;7.00;;;;;22.09;48.50;100030.60;110308;1263;19751;-49
2022/06/21 04:42:13;;;;;;;;;6.67;6.33;;;;;22.13;48.45;100037.44;110232;1264;22735;-48
2022/06/21 04:44:40;;;;;;;;;6.00;6.00;;;;;22.07;48.41;100046.79;110296;1264;18748;-48
2022/06/21 04:47:07;;;;;;;;;6.00;6.00;;;;;22.04;48.61;100044.36;110273;1263;21014;-48
2022/06/21 04:49:35;;;;;;;;;9.00;7.00;;;;;22.03;48.46;100051.24;110274;1264;18683;-50
2022/06/21 04:52:02;;;;;;;;;9.00;7.00;;;;;22.05;48.40;100055.73;110307;1263;20262;-48
2022/06/21 04:54:29;;;;;;;;;7.00;7.00;;;;;22.08;48.29;100057.16;110237;1265;19580;-50
2022/06/21 04:56:56;;;;;;;;;8.67;6.67;;;;;22.03;48.48;100059.70;110269;1264;18591;-49
2022/06/21 04:59:24;;;;;;;;;6.00;6.00;;;;;22.01;48.38;100063.20;110216;1264;18820;-51
2022/06/21 05:01:51;;;;;;;;;7.00;7.00;;;;;22.03;48.27;100059.69;110272;1265;19685;-50
2022/06/21 05:04:18;;;;;;;;;7.00;6.00;;;;;22.09;48.50;100055.24;110295;1265;20151;-50
2022/06/21 05:06:45;;;;;;;;;7.00;7.00;;;;;22.15;48.58;100060.11;110280;1264;22095;-49
2022/06/21 05:09:13;;;;;;;;;9.00;9.00;;;;;22.13;49.26;100061.86;110265;1264;19467;-51
2022/06/21 05:11:40;;;;;;;;;6.67;6.67;;;;;22.17;49.19;100061.46;110266;1264;22945;-50
2022/06/21 05:14:07;;;;;;;;;8.00;7.00;;;;;22.40;48.72;100059.92;110270;1265;19151;-50
2022/06/21 05:16:35;;;;;;;;;7.00;6.33;;;;;22.60;48.28;100062.10;110275;1265;22258;-50
2022/06/21 05:19:06;;;;;;;;;6.50;6.50;;;;;22.74;48.11;100061.21;110279;1264;18675;-49
2022/06/21 05:21:33;;;;;;;;;6.67;6.00;;;;;22.80;47.94;100064.38;110237;1265;18779;-49
2022/06/21 05:24:01;;;;;;;;;7.00;6.00;;;;;22.89;47.89;100065.27;110271;1265;20951;-51
2022/06/21 05:26:28;;;;;;;;;6.33;6.00;;;;;22.98;47.74;100063.45;110257;1265;18599;-49
2022/06/21 05:28:55;;;;;;;;;7.00;7.00;;;;;23.00;47.64;100064.63;110274;1264;18823;-49
2022/06/21 05:31:23;;;;;;;;;7.00;7.00;;;;;22.99;47.68;100068.69;110262;1264;19661;-48
2022/06/21 05:33:51;;;;;;;;;6.33;6.00;;;;;23.05;47.99;100070.14;110228;1265;20114;-50
2022/06/21 05:36:18;;;;;;;;;6.00;6.00;;;;;23.12;47.84;100076.91;110195;1265;19367;-49
2022/06/21 05:38:45;;;;;;;;;7.00;7.00;;;;;23.17;48.45;100080.11;110267;1264;19842;-50
2022/06/21 05:41:29;;;;;;;;;7.00;6.33;;;;;23.17;48.29;100082.30;110249;1265;22968;-50
2022/06/21 05:43:57;;;;;;;;;6.67;6.33;;;;;23.12;48.03;100087.64;109678;1264;18567;-49
2022/06/21 05:46:24;;;;;;;;;6.00;6.00;;;;;23.13;47.75;100090.84;110281;1264;19649;-54
2022/06/21 05:48:52;;;;;;;;;9.00;7.00;;;;;23.14;47.64;100091.61;110287;1264;18519;-52
2022/06/21 05:51:19;;;;;;;;;7.00;7.00;;;;;23.20;47.59;100095.10;110149;1265;19603;-52
2022/06/21 05:53:46;;;;;;;;;7.00;7.00;;;;;23.22;47.40;100098.97;110237;1265;19445;-51
2022/06/21 05:56:13;;;;;;;;;11.00;10.00;;;;;23.21;47.09;100092.10;110250;1264;18580;-51
2022/06/21 05:58:41;;;;;;;;;7.00;7.00;;;;;23.07;46.89;100097.48;110251;1264;19218;-48
2022/06/21 06:01:08;;;;;;;;;6.33;6.33;;;;;23.02;47.01;100098.86;110288;1265;19464;-48
2022/06/21 06:03:35;;;;;;;;;7.67;7.67;;;;;23.07;46.73;100094.75;110245;1264;18509;-48
2022/06/21 06:06:05;;;;;;;;;7.00;6.00;;;;;23.14;46.63;100106.06;110178;1265;18848;-51
2022/06/21 06:08:32;;;;;;;;;7.00;7.00;;;;;23.18;46.49;100102.54;110229;1264;19472;-49
2022/06/21 06:11:01;;;;;;;;;6.33;6.33;;;;;23.21;46.44;100103.26;110201;1264;23006;-49
2022/06/21 06:13:29;;;;;;;;;7.00;6.67;;;;;23.21;46.18;100099.77;110274;1264;18973;-49
2022/06/21 06:15:56;;;;;;;;;9.00;7.00;;;;;23.18;46.22;100103.17;110285;1265;19741;-50
2022/06/21 06:18:23;;;;;;;;;7.00;7.00;;;;;23.24;46.34;100101.08;110254;1264;18435;-49
2022/06/21 06:20:51;;;;;;;;;7.00;6.67;;;;;23.23;46.16;100105.15;110262;1263;21494;-52
2022/06/21 06:23:18;;;;;;;;;6.00;6.00;;;;;23.29;46.11;100107.13;110226;1264;19467;-49
2022/06/21 06:25:45;;;;;;;;;7.00;6.00;;;;;23.30;46.08;100107.59;110119;1264;18644;-48
2022/06/21 06:28:12;;;;;;;;;6.00;6.00;;;;;23.33;46.31;100108.83;110284;1264;18774;-54
2022/06/21 06:30:39;;;;;;;;;7.00;6.00;;;;;23.33;46.24;100111.98;110295;1264;19463;-46
2022/06/21 06:33:07;;;;;;;;;7.00;6.00;;;;;23.31;46.18;100112.05;110266;1264;20045;-52
2022/06/21 06:35:35;;;;;;;;;7.00;6.00;;;;;23.31;46.00;100115.39;110309;1264;18803;-49
2022/06/21 06:38:02;;;;;;;;;7.00;7.00;;;;;23.27;45.98;100114.75;110223;1264;19620;-50
2022/06/21 06:40:29;;;;;;;;;7.00;7.00;;;;;23.25;45.90;100117.22;110133;1265;18596;-49
2022/06/21 06:42:56;;;;;;;;;6.00;6.00;;;;;23.34;46.12;100119.17;110211;1264;18876;-48
2022/06/21 06:45:24;;;;;;;;;7.00;7.00;;;;;23.31;46.03;100120.30;110249;1264;20984;-48
2022/06/21 06:47:51;;;;;;;;;7.00;6.00;;;;;23.11;46.10;100123.30;110252;1265;18858;-50
2022/06/21 06:50:18;;;;;;;;;9.00;9.00;;;;;23.08;46.32;100121.95;110262;1264;22746;-51
2022/06/21 06:52:45;;;;;;;;;8.33;7.00;;;;;22.98;46.32;100121.34;110257;1265;22240;-50
2022/06/21 06:55:13;;;;;;;;;6.00;6.00;;;;;22.90;46.41;100120.80;110303;1264;18710;-53
2022/06/21 06:57:41;;;;;;;;;6.00;6.00;;;;;22.68;46.93;100123.10;110265;1264;18859;-55
2022/06/21 07:00:08;;;;;;;;;7.67;7.67;;;;;22.52;47.19;100124.51;110242;1264;19795;-54
2022/06/21 07:02:35;;;;;;;;;6.00;6.00;;;;;22.50;47.28;100127.44;110223;1265;18588;-50
2022/06/21 07:05:03;;;;;;;;;5.00;5.00;;;;;22.41;47.44;100124.71;110263;1265;18834;-53
2022/06/21 07:07:30;;;;;;;;;6.00;5.00;;;;;22.50;47.20;100126.89;110268;1264;19648;-50
2022/06/21 07:09:58;;;;;;;;;7.00;6.00;;;;;22.48;47.24;100130.38;110259;1264;19285;-50
2022/06/21 07:12:25;;;;;;;;;6.00;6.00;;;;;22.52;47.07;100127.38;110128;1264;19509;-50
2022/06/21 07:14:52;;;;;;;;;6.00;6.00;;;;;22.47;47.01;100131.96;110291;1264;19608;-53
2022/06/21 07:17:20;;;;;;;;;5.33;5.33;;;;;22.46;47.19;100133.01;110265;1265;18497;-51
2022/06/21 07:19:47;;;;;;;;;5.50;5.50;;;;;22.47;46.86;100135.27;110165;1264;20010;-48
2022/06/21 07:22:15;;;;;;;;;5.67;5.33;;;;;22.44;47.06;100139.34;110188;1265;19434;-50
2022/06/21 07:24:43;;;;;;;;;5.00;5.00;;;;;22.42;47.12;100142.61;110322;1264;19822;-48
2022/06/21 07:27:11;;;;;;;;;4.33;4.33;;;;;22.39;47.30;100138.94;110111;1264;18751;-48
2022/06/21 07:29:38;;;;;;;;;5.67;5.67;;;;;22.40;47.14;100137.97;110228;1264;19738;-49
2022/06/21 07:32:06;;;;;;;;;3.67;3.67;;;;;22.44;46.99;100140.36;110246;1264;18756;-49
2022/06/21 07:34:33;;;;;;;;;5.00;3.67;;;;;22.51;46.93;100139.13;110162;1264;23367;-49
2022/06/21 07:37:00;;;;;;;;;5.00;5.00;;;;;22.56;46.81;100140.88;110235;1264;19478;-48
2022/06/21 07:39:27;;;;;;;;;3.00;3.00;;;;;22.63;46.61;100135.22;110241;1264;18351;-51
2022/06/21 07:41:55;;;;;;;;;5.00;3.00;;;;;22.69;46.54;100135.22;110022;1264;18852;-48
2022/06/21 07:44:22;;;;;;;;;5.00;4.33;;;;;22.72;46.56;100143.00;110100;1264;22338;-47
2022/06/21 07:46:49;;;;;;;;;97.67;71.33;;;;;22.73;46.46;100146.88;110136;1264;18836;-51
2022/06/21 07:49:16;;;;;;;;;92.00;65.00;;;;;22.74;46.28;100150.95;110192;1265;19021;-51
2022/06/21 07:51:44;;;;;;;;;57.00;45.00;;;;;22.74;46.10;100153.89;110272;1264;19463;-50
2022/06/21 07:54:11;;;;;;;;;60.33;45.00;;;;;22.78;46.11;100158.45;110120;1264;19601;-52
2022/06/21 07:56:38;;;;;;;;;29.00;26.50;;;;;22.79;45.81;100163.36;110149;1264;20375;-47
2022/06/21 07:59:05;;;;;;;;;27.00;23.00;;;;;22.79;45.41;100170.09;110163;1264;20675;-48
2022/06/21 08:07:03;;;;;;;;;17.00;14.00;;;;;22.74;45.05;100178.11;110203;1264;19580;-49
2022/06/21 08:09:30;;;;;;;;;14.00;13.50;;;;;22.71;44.88;100180.87;110179;1264;18783;-52
2022/06/21 08:12:00;;;;;;;;;14.00;10.67;;;;;22.73;44.72;100187.35;110158;1264;18827;-48
2022/06/21 08:14:27;;;;;;;;;11.00;10.00;;;;;22.77;44.61;100180.38;110146;1264;19688;-48
2022/06/21 08:16:55;;;;;;;;;7.67;7.00;;;;;22.82;44.33;100184.68;110149;1264;18768;-49
2022/06/21 08:19:22;;;;;;;;;9.67;9.00;;;;;22.85;44.40;100182.41;110186;1265;18899;-49
2022/06/21 08:21:50;;;;;;;;;6.67;6.67;;;;;22.91;44.54;100188.20;110241;1264;19461;-49
2022/06/21 08:24:17;;;;;;;;;6.00;6.00;;;;;22.97;44.84;100185.98;110245;1264;18491;-50
2022/06/21 08:26:44;;;;;;;;;7.00;7.00;;;;;23.03;44.55;100187.88;110252;1265;18898;-50
2022/06/21 08:29:12;;;;;;;;;6.67;6.00;;;;;23.03;44.42;100186.95;110203;1264;19537;-50
2022/06/21 08:31:39;;;;;;;;;9.00;9.00;;;;;23.05;44.52;100194.14;110250;1264;20167;-49
2022/06/21 08:34:06;;;;;;;;;6.33;6.33;;;;;23.01;44.56;100193.25;110150;1264;18810;-48
2022/06/21 08:36:33;;;;;;;;;8.33;7.67;;;;;22.85;44.71;100199.52;110204;1264;19405;-50
2022/06/21 08:39:01;;;;;;;;;6.00;5.33;;;;;22.73;44.86;100195.41;110238;1264;18488;-49
2022/06/21 08:44:13;;;;;;;;;3.00;3.00;;;;;22.62;44.63;100189.81;110269;1264;22600;-50
2022/06/21 08:46:40;;;;;;;;;5.50;5.50;;;;;22.60;44.66;100190.05;110266;1264;22229;-50
2022/06/21 08:49:07;;;;;;;;;5.50;5.00;;;;;22.61;44.65;100185.35;110288;1264;22945;-49
2022/06/21 08:51:35;;;;;;;;;5.00;5.00;;;;;22.52;44.63;100193.30;110210;1263;19558;-49
2022/06/21 08:54:03;;;;;;;;;5.00;5.00;;;;;22.54;44.68;100187.05;110238;1264;19066;-49
2022/06/21 08:56:30;;;;;;;;;4.33;3.67;;;;;22.57;44.49;100194.33;110227;1264;18695;-50
2022/06/21 08:58:58;;;;;;;;;7.00;7.00;;;;;22.56;44.39;100189.61;110206;1264;19542;-50
2022/06/21 09:01:25;;;;;;;;;6.00;6.00;;;;;22.62;44.33;100189.89;110234;1264;18428;-48
2022/06/21 09:03:52;;;;;;;;;10.33;9.00;;;;;22.63;44.37;100186.20;110254;1265;18757;-49
2022/06/21 09:06:19;;;;;;;;;10.33;10.00;;;;;22.64;44.38;100183.36;110171;1264;19746;-49
2022/06/21 09:08:47;;;;;;;;;6.67;6.67;;;;;22.66;44.36;100183.11;110207;1265;19761;-49
2022/06/21 09:11:14;;;;;;;;;7.67;7.67;;;;;22.74;44.32;100188.31;110250;1264;19111;-49
2022/06/21 09:13:42;;;;;;;;;6.00;6.00;;;;;22.75;44.19;100186.55;110229;1265;20901;-50
2022/06/21 09:16:09;;;;;;;;;7.00;7.00;;;;;22.72;44.48;100187.42;110292;1263;18619;-48
2022/06/21 09:18:37;;;;;;;;;7.00;7.00;;;;;22.77;44.37;100192.95;110223;1264;18843;-49
2022/06/21 09:21:04;;;;;;;;;5.67;5.67;;;;;22.73;44.28;100191.96;110244;1264;19473;-50
2022/06/21 09:23:31;;;;;;;;;6.00;6.00;;;;;22.67;44.53;100184.11;110236;1264;18980;-49
2022/06/21 09:25:58;;;;;;;;;4.00;4.00;;;;;22.65;44.34;100181.63;110224;1265;19177;-50
2022/06/21 09:28:26;;;;;;;;;6.33;6.00;;;;;22.66;44.44;100186.42;110221;1264;19468;-50
2022/06/21 09:30:53;;;;;;;;;5.67;5.67;;;;;22.60;44.34;100182.31;110301;1264;20245;-49
2022/06/21 09:33:20;;;;;;;;;5.00;5.00;;;;;22.59;44.21;100183.11;110138;1264;18723;-51
2022/06/21 09:35:48;;;;;;;;;5.00;5.00;;;;;22.63;44.09;100197.67;110053;1264;19930;-49
2022/06/21 09:38:15;;;;;;;;;3.67;3.67;;;;;22.67;44.25;100207.20;110203;1265;23913;-49
2022/06/21 09:40:42;;;;;;;;;5.00;5.00;;;;;22.75;43.98;100217.48;110205;1264;19549;-49
2022/06/21 09:43:10;;;;;;;;;5.00;5.00;;;;;22.80;44.12;100218.48;110227;1264;19604;-50
2022/06/21 09:45:37;;;;;;;;;5.00;5.00;;;;;22.79;44.46;100226.81;110215;1264;20320;-52
2022/06/21 09:48:04;;;;;;;;;5.00;5.00;;;;;22.78;44.69;100222.42;110195;1264;18778;-45
2022/06/21 09:50:31;;;;;;;;;5.00;5.00;;;;;22.83;45.08;100226.82;110207;1264;20797;-47
2022/06/21 09:52:59;;;;;;;;;3.00;3.00;;;;;22.90;45.10;100224.45;110210;1264;18503;-47
2022/06/21 09:55:26;;;;;;;;;5.00;5.00;;;;;22.97;45.39;100223.67;110208;1265;18759;-49
2022/06/21 09:57:53;;;;;;;;;6.00;5.00;;;;;22.98;45.58;100215.73;110234;1265;19723;-48
2022/06/21 10:00:22;;;;;;;;;5.00;5.00;;;;;23.05;45.58;100217.52;110113;1265;18483;-48
2022/06/21 10:02:49;;;;;;;;;5.00;5.00;;;;;23.10;45.86;100220.98;110193;1264;18794;-49
2022/06/21 10:05:17;;;;;;;;;5.00;5.00;;;;;23.15;45.34;100225.77;110205;1264;19543;-48
2022/06/21 10:07:45;;;;;;;;;5.67;5.67;;;;;23.07;44.92;100213.79;110217;1264;21380;-49
2022/06/21 10:10:12;;;;;;;;;5.00;5.00;;;;;22.98;45.22;100218.51;110241;1264;18857;-48
2022/06/21 10:12:40;;;;;;;;;5.00;5.00;;;;;23.06;44.90;100216.23;110215;1265;19620;-52
2022/06/21 10:15:07;;;;;;;;;5.00;5.00;;;;;23.00;44.60;100217.67;110226;1264;22570;-52
2022/06/21 10:17:34;;;;;;;;;10.67;10.00;;;;;22.97;44.43;100226.36;110204;1264;18909;-47
2022/06/21 10:20:01;;;;;;;;;7.00;6.00;;;;;22.99;44.05;100240.34;110244;1265;20990;-51
2022/06/21 10:22:29;;;;;;;;;6.67;6.00;;;;;22.92;43.93;100269.23;110176;1264;18867;-50
2022/06/21 10:24:56;;;;;;;;;7.67;7.00;;;;;22.86;44.19;100289.31;110326;1264;19448;-47
2022/06/21 10:27:24;;;;;;;;;6.00;5.00;;;;;22.84;44.00;100288.21;110234;1264;22928;-50
2022/06/21 10:29:51;;;;;;;;;5.00;5.00;;;;;22.82;44.08;100285.54;110232;1264;18401;-49
2022/06/21 10:32:18;;;;;;;;;5.00;5.00;;;;;22.83;44.28;100281.30;110229;1264;18789;-50
2022/06/21 10:34:45;;;;;;;;;4.33;4.33;;;;;22.88;44.48;100267.85;110269;1264;19646;-48
2022/06/21 10:37:13;;;;;;;;;5.00;5.00;;;;;22.94;44.52;100264.16;110153;1264;18866;-52
2022/06/21 10:39:40;;;;;;;;;3.00;3.00;;;;;22.96;44.82;100264.63;110134;1265;18956;-49
2022/06/21 10:44:52;;;;;;;;;5.00;5.00;;;;;23.04;45.37;100253.60;110212;1264;18613;-48
2022/06/21 10:47:20;;;;;;;;;3.00;3.00;;;;;23.12;45.15;100251.91;110252;1265;18693;-52
2022/06/21 10:49:47;;;;;;;;;4.00;4.00;;;;;23.20;45.26;100251.83;110260;1264;19585;-51
2022/06/21 10:52:14;;;;;;;;;5.00;5.00;;;;;23.26;45.36;100253.86;110267;1264;18963;-49
2022/06/21 10:54:42;;;;;;;;;6.50;6.50;;;;;23.33;45.39;100253.12;110243;1264;19191;-50
2022/06/21 10:57:13;;;;;;;;;6.00;6.00;;;;;23.36;45.59;100252.33;110233;1264;19766;-48
2022/06/21 11:02:25;;;;;;;;;5.00;5.00;;;;;23.39;46.17;100246.62;110210;1264;22019;-54
2022/06/21 11:04:53;;;;;;;;;6.00;6.00;;;;;23.42;46.35;100248.77;110243;1264;19839;-50
2022/06/21 11:07:20;;;;;;;;;6.00;6.00;;;;;23.42;46.62;100248.65;110280;1264;18453;-49
2022/06/21 11:09:47;;;;;;;;;6.00;6.00;;;;;23.45;46.69;100247.17;110230;1264;18903;-48
2022/06/21 11:14:59;;;;;;;;;95.00;66.67;;;;;23.54;47.08;100242.61;110069;1264;18458;-46
2022/06/21 11:17:27;;;;;;;;;59.67;44.00;;;;;23.60;47.34;100237.25;110169;1264;19911;-52
2022/06/21 11:19:55;;;;;;;;;28.67;24.00;;;;;23.66;47.15;100246.50;110129;1264;19606;-52
2022/06/21 11:22:24;;;;;;;;;54.00;41.50;;;;;23.63;47.06;100250.36;110153;1264;19031;-51
2022/06/21 11:24:51;;;;;;;;;40.33;34.33;;;;;23.59;47.15;100262.36;110180;1264;19139;-51
2022/06/21 11:27:19;;;;;;;;;39.33;33.00;;;;;23.54;47.34;100274.98;110196;1263;19861;-48
2022/06/21 11:29:46;;;;;;;;;28.00;21.00;;;;;23.55;47.58;100271.11;110259;1265;19732;-48
2022/06/21 11:32:14;;;;;;;;;25.00;24.00;;;;;23.54;47.82;100268.15;110140;1264;18754;-48
2022/06/21 11:34:41;;;;;;;;;19.33;18.33;;;;;23.58;47.90;100264.58;110203;1263;19664;-49